Terminal Aerodrome Forecast
Issued by NWS

Home | Current Version | Previous Version | Text Only | Print | Product List | Glossary On
Versions: 1 2 3 4 5 6 7 8 9 10 11 12 13 14 15 16 17
000
FTUS46 KMFR 241400 AAA
TAFRBG
TAF AMD
KRBG 241414Z 2414/2512 00000KT P6SM BKN005 OVC035
     FM241600 35003KT P6SM SCT006 BKN040
     FM241800 36005KT P6SM SCT040
     FM250000 36012KT P6SM SKC
     FM250500 36003KT P6SM SKC=

USA.gov is the U.S. government's official web portal to all federal, state and local government web resources and services.